createdAt,value
2023-04-26T00:00:55.525Z,69.59
2023-04-26T00:05:57.768Z,69.80
2023-04-26T00:11:01.919Z,70.03
2023-04-26T00:16:04.242Z,70.85
2023-04-26T00:21:06.239Z,72.13
2023-04-26T00:26:08.288Z,72.51
2023-04-26T00:31:17.672Z,72.84
2023-04-26T00:36:19.736Z,74.05
2023-04-26T00:41:22.681Z,73.53
2023-04-26T00:46:24.610Z,73.68
2023-04-26T00:51:27.199Z,73.55
2023-04-26T00:56:30.796Z,74.62
2023-04-26T01:01:32.740Z,74.51
2023-04-26T01:06:36.003Z,73.87
2023-04-26T01:11:39.649Z,75.05
2023-04-26T01:16:41.866Z,75.21
2023-04-26T01:21:43.886Z,74.58
2023-04-26T01:26:46.513Z,75.70
2023-04-26T01:31:49.625Z,75.97
2023-04-26T01:36:51.369Z,75.59
2023-04-26T01:41:53.117Z,74.39
2023-04-26T01:46:54.833Z,74.20
2023-04-26T01:51:56.643Z,73.13
2023-04-26T01:56:59.239Z,71.87
2023-04-26T02:02:02.784Z,71.29
2023-04-26T02:07:04.628Z,72.10
2023-04-26T02:12:06.592Z,72.64
2023-04-26T02:17:09.067Z,72.33
2023-04-26T02:22:10.982Z,72.79
2023-04-26T02:27:15.936Z,71.91
2023-04-26T02:32:17.654Z,70.82
2023-04-26T02:37:19.448Z,70.70
2023-04-26T02:42:21.420Z,71.66
2023-04-26T02:47:23.281Z,71.47
2023-04-26T02:52:26.956Z,71.26
2023-04-26T02:57:28.650Z,71.66
2023-04-26T03:02:30.869Z,71.80
2023-04-26T03:07:33.087Z,71.39
2023-04-26T03:12:34.818Z,70.64
2023-04-26T03:17:38.117Z,70.30
2023-04-26T03:22:40.541Z,69.50
2023-04-26T03:27:43.279Z,69.69
2023-04-26T03:32:45.452Z,69.74
2023-04-26T03:37:47.424Z,69.42
2023-04-26T03:42:52.052Z,68.06
2023-04-26T03:47:54.312Z,68.15
2023-04-26T03:52:56.669Z,67.85
2023-04-26T03:57:58.422Z,67.63
2023-04-26T04:03:00.470Z,66.51
2023-04-26T04:08:02.314Z,64.40
2023-04-26T04:13:05.091Z,60.02
2023-04-26T04:18:07.203Z,56.62
2023-04-26T04:23:09.965Z,53.62
2023-04-26T04:28:13.038Z,52.29
2023-04-26T04:33:16.321Z,55.66
2023-04-26T04:38:18.395Z,58.38
2023-04-26T04:43:21.577Z,58.97
2023-04-26T04:48:23.652Z,59.36
2023-04-26T04:53:25.740Z,59.40
2023-04-26T04:58:27.874Z,58.08
2023-04-26T05:03:30.417Z,58.14
2023-04-26T05:08:37.948Z,58.10
2023-04-26T05:13:42.607Z,58.19
2023-04-26T05:18:45.247Z,57.62
2023-04-26T05:23:47.105Z,56.39
2023-04-26T05:28:49.053Z,55.84
2023-04-26T05:33:56.776Z,54.90
2023-04-26T05:39:06.241Z,54.31
2023-04-26T05:44:08.402Z,53.65
2023-04-26T05:49:10.408Z,53.06
2023-04-26T05:54:12.259Z,52.72
2023-04-26T05:59:14.838Z,52.18
2023-04-26T06:04:16.820Z,50.48
2023-04-26T06:09:41.677Z,49.92
2023-04-26T06:14:43.903Z,48.21
2023-04-26T06:19:50.769Z,46.52
2023-04-26T06:24:52.589Z,45.69
2023-04-26T06:29:54.418Z,45.54
2023-04-26T06:34:57.866Z,44.89
2023-04-26T06:39:59.821Z,43.58
2023-04-26T06:45:01.658Z,44.50
2023-04-26T06:50:04.953Z,44.38
2023-04-26T06:55:07.328Z,42.86
2023-04-26T07:00:09.835Z,43.22
2023-04-26T07:05:11.755Z,41.11
2023-04-26T07:10:14.105Z,41.08
2023-04-26T07:15:15.995Z,41.41
2023-04-26T07:20:20.856Z,39.87
2023-04-26T07:25:22.653Z,39.90
2023-04-26T07:30:24.390Z,39.32
2023-04-26T07:35:26.421Z,38.76
2023-04-26T07:40:29.351Z,40.20
2023-04-26T07:45:32.608Z,40.63
2023-04-26T07:50:34.544Z,40.05
2023-04-26T07:55:37.615Z,38.68
2023-04-26T08:00:40.086Z,37.45
2023-04-26T08:05:42.085Z,35.75
2023-04-26T08:10:43.965Z,38.23
2023-04-26T08:15:45.833Z,36.77
2023-04-26T08:20:47.594Z,35.52
2023-04-26T08:25:52.351Z,35.29
2023-04-26T08:30:54.270Z,36.28
2023-04-26T08:35:56.160Z,35.83
2023-04-26T08:41:03.138Z,35.75
2023-04-26T08:46:09.438Z,35.99
2023-04-26T08:51:13.717Z,34.17
2023-04-26T08:56:15.566Z,35.12
2023-04-26T09:01:19.989Z,35.93
2023-04-26T09:06:23.213Z,35.65
2023-04-26T09:11:25.295Z,37.11
2023-04-26T09:16:38.950Z,37.54
2023-04-26T09:21:45.491Z,37.86
2023-04-26T09:27:01.300Z,39.15
2023-04-26T09:32:03.887Z,38.56
2023-04-26T09:37:05.597Z,35.85
2023-04-26T09:42:08.324Z,35.98
2023-04-26T09:47:12.058Z,35.16
2023-04-26T09:52:14.528Z,37.35
2023-04-26T09:57:17.569Z,39.01
2023-04-26T10:02:27.495Z,37.22
2023-04-26T10:07:30.440Z,37.09
2023-04-26T10:12:32.196Z,34.67
2023-04-26T10:17:34.019Z,34.06
2023-04-26T10:22:43.589Z,32.77
2023-04-26T10:27:45.322Z,32.88
2023-04-26T10:33:07.410Z,33.70
2023-04-26T10:38:10.012Z,34.35
2023-04-26T10:43:11.998Z,33.67
2023-04-26T10:48:13.792Z,34.27
2023-04-26T10:53:15.705Z,34.71
2023-04-26T10:58:31.992Z,34.72
2023-04-26T11:03:34.376Z,34.70
2023-04-26T11:08:37.075Z,34.68
2023-04-26T11:13:43.593Z,35.13
2023-04-26T11:18:47.435Z,36.80
2023-04-26T11:23:55.675Z,38.35
2023-04-26T11:28:57.515Z,37.94
2023-04-26T11:34:05.486Z,39.72
2023-04-26T11:39:07.254Z,39.62
2023-04-26T11:44:11.868Z,39.18
2023-04-26T11:49:14.149Z,38.33
2023-04-26T11:54:32.476Z,40.69
2023-04-26T11:59:34.175Z,42.29
2023-04-26T12:04:37.554Z,43.62
2023-04-26T12:09:44.464Z,39.65
2023-04-26T12:14:49.878Z,38.07
2023-04-26T12:19:51.724Z,37.91
2023-04-26T12:25:05.089Z,36.52
2023-04-26T12:30:08.340Z,34.00
2023-04-26T12:35:10.559Z,36.48
2023-04-26T12:40:12.908Z,34.96
2023-04-26T12:45:14.873Z,34.39
2023-04-26T12:50:18.698Z,38.59
2023-04-26T12:55:21.285Z,43.10
2023-04-26T13:00:23.304Z,49.43
2023-04-26T13:05:25.544Z,48.11
2023-04-26T13:10:28.035Z,49.85
2023-04-26T13:15:30.077Z,51.21
2023-04-26T13:20:31.924Z,46.76
2023-04-26T13:25:33.698Z,44.48
2023-04-26T13:30:35.738Z,44.89
2023-04-26T13:35:37.581Z,43.14
2023-04-26T13:40:39.371Z,42.43
2023-04-26T13:45:41.113Z,41.97
2023-04-26T13:50:42.978Z,41.00
2023-04-26T13:55:44.712Z,41.35
2023-04-26T14:00:46.582Z,41.56
2023-04-26T14:05:48.449Z,42.29
2023-04-26T14:10:50.621Z,40.07
2023-04-26T14:15:52.461Z,40.26
2023-04-26T14:20:54.373Z,40.20
2023-04-26T14:25:56.146Z,42.16
2023-04-26T14:30:57.861Z,41.59
2023-04-26T14:35:59.708Z,39.84
2023-04-26T14:41:01.711Z,39.12
2023-04-26T14:46:03.617Z,36.67
2023-04-26T14:51:05.670Z,37.51
2023-04-26T14:56:08.324Z,35.90
2023-04-26T15:01:10.622Z,34.77
2023-04-26T15:06:12.552Z,35.35
2023-04-26T15:11:14.338Z,34.95
2023-04-26T15:36:37.434Z,38.89
2023-04-26T15:41:39.661Z,38.35
2023-04-26T15:46:41.712Z,37.60
2023-04-26T15:51:43.817Z,38.33
2023-04-26T15:56:48.736Z,36.90
2023-04-26T16:01:50.491Z,37.36
2023-04-26T16:06:52.298Z,38.72
2023-04-26T16:11:54.065Z,38.09
2023-04-26T16:16:55.969Z,38.42
2023-04-26T16:21:57.838Z,38.89
2023-04-26T16:26:59.663Z,39.58
2023-04-26T16:32:01.748Z,39.77
2023-04-26T16:37:03.560Z,40.28
2023-04-26T16:42:05.372Z,40.67
2023-04-26T16:47:07.311Z,41.31
2023-04-26T16:52:09.151Z,41.38
2023-04-26T16:57:11.962Z,41.09
2023-04-26T17:02:14.093Z,40.43
2023-04-26T17:07:16.492Z,39.90
2023-04-26T17:12:18.228Z,40.05
2023-04-26T17:17:19.905Z,40.66
2023-04-26T17:22:21.651Z,41.76
2023-04-26T17:27:24.856Z,41.49
2023-04-26T17:32:26.854Z,42.74
2023-04-26T17:37:28.742Z,42.09
2023-04-26T17:42:33.743Z,42.74
2023-04-26T17:47:35.677Z,43.48
2023-04-26T17:52:38.245Z,47.15
2023-04-26T17:57:40.035Z,47.88
2023-04-26T18:02:42.218Z,48.20
2023-04-26T18:07:47.455Z,48.02
2023-04-26T18:12:49.146Z,48.28
2023-04-26T18:17:51.121Z,48.29
2023-04-26T18:22:54.034Z,48.67
2023-04-26T18:27:55.778Z,47.57
2023-04-26T18:32:57.511Z,47.96
2023-04-26T18:37:59.235Z,48.60
2023-04-26T18:43:01.115Z,49.93
2023-04-26T18:48:03.060Z,49.00
2023-04-26T18:53:04.895Z,49.07
2023-04-26T18:58:06.641Z,48.95
2023-04-26T19:03:08.553Z,49.35
2023-04-26T19:08:10.630Z,49.71
2023-04-26T19:13:12.364Z,49.47
2023-04-26T19:18:14.160Z,49.43
2023-04-26T19:23:18.589Z,49.69
2023-04-26T19:28:20.617Z,49.36
2023-04-26T19:33:22.477Z,49.34
2023-04-26T19:38:25.053Z,49.11
2023-04-26T19:43:26.825Z,49.37
2023-04-26T19:48:28.643Z,48.62
2023-04-26T19:53:30.409Z,48.46
2023-04-26T19:58:32.543Z,49.13
2023-04-26T20:03:34.569Z,49.79
2023-04-26T20:08:36.451Z,50.73
2023-04-26T20:13:38.175Z,52.16
2023-04-26T20:18:40.015Z,52.28
2023-04-26T20:23:42.618Z,52.16
2023-04-26T20:28:45.620Z,51.35
2023-04-26T20:33:47.394Z,51.25
2023-04-26T20:38:49.188Z,51.16
2023-04-26T20:43:54.352Z,50.63
2023-04-26T20:48:56.137Z,50.51
2023-04-26T20:53:57.900Z,51.43
2023-04-26T20:58:59.700Z,52.12
2023-04-26T21:04:01.710Z,51.91
2023-04-26T21:09:04.849Z,51.46
2023-04-26T21:14:07.247Z,52.34
2023-04-26T21:19:09.752Z,52.15
2023-04-26T21:24:11.943Z,52.42
2023-04-26T21:29:13.752Z,51.73
2023-04-26T21:34:15.805Z,51.95
2023-04-26T21:39:18.333Z,51.86
2023-04-26T21:44:20.155Z,51.99
2023-04-26T21:49:22.076Z,51.85
2023-04-26T21:54:24.869Z,51.75
2023-04-26T21:59:28.815Z,51.70
2023-04-26T22:04:30.939Z,52.37
2023-04-26T22:09:32.861Z,51.60
2023-04-26T22:14:34.614Z,52.39
2023-04-26T22:19:36.544Z,52.32
2023-04-26T22:24:38.476Z,52.26
2023-04-26T22:29:40.362Z,53.24
2023-04-26T22:34:43.763Z,53.66
2023-04-26T22:39:46.723Z,54.07
2023-04-26T22:44:51.529Z,56.94
2023-04-26T22:49:53.283Z,58.41
2023-04-26T22:54:55.247Z,58.49
2023-04-26T22:59:57.371Z,59.49
2023-04-26T23:04:59.212Z,59.44
2023-04-26T23:10:01.160Z,59.15
2023-04-26T23:15:05.126Z,59.26
2023-04-26T23:20:12.730Z,59.24
2023-04-26T23:25:14.562Z,58.85
2023-04-26T23:30:16.749Z,59.99
2023-04-26T23:35:18.513Z,60.54
2023-04-26T23:40:20.604Z,60.12
2023-04-26T23:45:23.747Z,60.09
2023-04-26T23:50:26.029Z,58.99
2023-04-26T23:55:27.960Z,61.04
